Time;durP1;ratioP1;P1;durP2;ratioP2;P2;SDS_P1;SDS_P2;PMS_P1;PMS_P2;Temp;Humidity;BMP_temperature;BMP_pressure;BME280_temperature;BME280_humidity;BME280_pressure;Samples;Min_cycle;Max_cycle;Signal;HPM_P1;HPM_P2
2022/03/27 00:02:14;;;;;;;14.20;8.63;;;12.30;72.40;;;;;;5037481;28;20451;-89
2022/03/27 00:04:41;;;;;;;15.50;8.32;;;12.20;72.60;;;;;;5055594;28;20433;-89
2022/03/27 00:07:07;;;;;;;14.40;8.40;;;12.30;72.90;;;;;;5055275;28;20188;-89
2022/03/27 00:09:32;;;;;;;11.80;7.60;;;12.10;72.80;;;;;;5056672;28;20173;-89
2022/03/27 00:11:58;;;;;;;21.67;7.60;;;12.20;72.90;;;;;;5037097;28;20667;-89
2022/03/27 00:14:24;;;;;;;12.47;8.60;;;12.10;73.30;;;;;;5037375;28;20366;-90
2022/03/27 00:16:49;;;;;;;16.70;7.40;;;12.20;73.30;;;;;;5038114;28;20173;-89
2022/03/27 00:19:15;;;;;;;13.80;8.03;;;12.10;73.00;;;;;;5052133;28;20177;-90
2022/03/27 00:21:42;;;;;;;15.87;8.20;;;12.00;73.30;;;;;;5018370;28;20604;-89
2022/03/27 00:24:07;;;;;;;12.68;8.30;;;12.00;73.80;;;;;;5017214;28;20284;-89
2022/03/27 00:26:33;;;;;;;15.70;8.50;;;11.90;74.10;;;;;;5000985;28;20603;-89
2022/03/27 00:28:59;;;;;;;12.87;7.53;;;12.00;74.00;;;;;;5035723;28;20424;-89
2022/03/27 00:31:25;;;;;;;15.70;8.03;;;11.90;74.90;;;;;;5017451;28;20269;-90
2022/03/27 00:33:50;;;;;;;12.00;6.60;;;11.90;74.40;;;;;;5018073;28;20221;-89
2022/03/27 00:36:16;;;;;;;16.57;8.60;;;11.80;74.80;;;;;;5018916;28;20182;-89
2022/03/27 00:38:46;;;;;;;10.07;7.20;;;11.80;75.10;;;;;;5026116;28;20235;-90
2022/03/27 00:41:24;;;;;;;15.52;8.63;;;11.80;75.10;;;;;;5055481;28;20184;-89
2022/03/27 00:43:50;;;;;;;14.43;8.70;;;11.90;75.20;;;;;;5038415;28;20262;-89
2022/03/27 00:46:16;;;;;;;15.50;8.80;;;12.00;74.90;;;;;;5039992;28;20181;-89
2022/03/27 00:48:42;;;;;;;12.90;8.10;;;11.90;75.00;;;;;;5038432;28;20545;-89
2022/03/27 00:51:07;;;;;;;16.23;8.60;;;11.70;75.20;;;;;;5039526;28;20181;-89
2022/03/27 00:53:33;;;;;;;15.07;9.00;;;11.60;75.50;;;;;;5026892;28;20697;-89
2022/03/27 00:55:59;;;;;;;19.60;8.57;;;11.50;76.20;;;;;;5039321;28;20166;-89
2022/03/27 00:58:25;;;;;;;15.93;7.33;;;11.40;76.70;;;;;;5027932;28;20173;-90
2022/03/27 01:01:14;;;;;;;17.97;10.20;;;11.40;77.00;;;;;;5037111;28;20519;-90
2022/03/27 01:03:39;;;;;;;13.35;7.40;;;11.40;77.00;;;;;;5037018;28;20938;-90
2022/03/27 01:06:18;;;;;;;13.90;8.13;;;11.40;77.20;;;;;;5036938;28;20238;-89
2022/03/27 01:11:28;;;;;;;10.10;6.65;;;11.50;77.20;;;;;;5055437;28;20586;-89
2022/03/27 01:13:56;;;;;;;18.83;10.70;;;11.50;77.40;;;;;;5040709;28;20209;-90
2022/03/27 01:16:37;;;;;;;13.10;8.35;;;11.50;77.50;;;;;;5051729;28;20177;-89
2022/03/27 01:19:06;;;;;;;10.52;8.02;;;11.30;77.90;;;;;;5038250;28;20177;-90
2022/03/27 01:21:34;;;;;;;14.18;9.00;;;11.30;78.50;;;;;;5036863;28;20651;-90
2022/03/27 01:24:00;;;;;;;12.35;7.63;;;11.40;78.40;;;;;;5036592;28;20628;-90
2022/03/27 01:26:26;;;;;;;13.73;8.17;;;11.50;78.20;;;;;;5039449;28;20193;-90
2022/03/27 01:28:52;;;;;;;13.40;8.47;;;11.50;78.10;;;;;;5050095;28;20200;-90
2022/03/27 01:31:19;;;;;;;14.77;8.20;;;11.50;78.20;;;;;;5050009;28;20593;-90
2022/03/27 01:33:44;;;;;;;11.85;8.10;;;11.40;78.70;;;;;;5036881;28;20216;-90
2022/03/27 01:36:10;;;;;;;19.83;9.60;;;11.40;78.50;;;;;;5036340;28;20655;-90
2022/03/27 01:38:36;;;;;;;15.57;8.40;;;11.40;78.50;;;;;;5037283;28;20427;-90
2022/03/27 01:41:02;;;;;;;16.10;8.87;;;11.40;78.70;;;;;;5036425;28;20246;-90
2022/03/27 01:43:27;;;;;;;16.17;10.20;;;11.40;78.70;;;;;;5054557;28;20447;-90
2022/03/27 01:45:53;;;;;;;16.50;9.43;;;11.30;79.00;;;;;;5020933;28;20181;-90
2022/03/27 01:48:19;;;;;;;19.23;11.03;;;11.20;79.50;;;;;;5037988;28;20181;-90
2022/03/27 01:51:00;;;;;;;17.83;8.50;;;11.20;79.60;;;;;;5039525;28;20181;-90
2022/03/27 01:53:26;;;;;;;18.10;9.70;;;11.20;79.50;;;;;;5038706;28;20228;-90
2022/03/27 01:55:52;;;;;;;15.77;8.75;;;11.20;79.70;;;;;;5038939;28;20177;-91
2022/03/27 01:58:18;;;;;;;18.13;8.73;;;11.20;79.80;;;;;;5045949;28;20184;-90
2022/03/27 02:00:44;;;;;;;19.17;8.87;;;11.30;79.60;;;;;;5038419;28;20173;-89
2022/03/27 02:03:10;;;;;;;12.30;8.33;;;11.10;79.90;;;;;;5036612;28;20645;-90
2022/03/27 02:05:36;;;;;;;19.45;9.02;;;11.00;80.10;;;;;;5054115;28;20230;-90
2022/03/27 02:08:02;;;;;;;15.20;8.77;;;11.10;80.40;;;;;;5054623;28;20599;-90
2022/03/27 02:10:28;;;;;;;13.90;9.63;;;11.10;80.40;;;;;;5036359;28;20990;-89
2022/03/27 02:12:57;;;;;;;16.30;10.00;;;11.10;80.60;;;;;;5053689;28;20654;-89
2022/03/27 02:15:25;;;;;;;15.65;9.50;;;11.10;80.80;;;;;;5036037;28;20523;-90
2022/03/27 02:17:51;;;;;;;16.40;9.90;;;11.00;80.80;;;;;;5035707;28;20181;-90
2022/03/27 02:20:17;;;;;;;16.40;9.30;;;10.90;81.00;;;;;;5035199;28;20177;-90
2022/03/27 02:22:43;;;;;;;17.57;10.23;;;10.90;81.20;;;;;;5019847;28;20205;-90
2022/03/27 02:25:09;;;;;;;18.67;9.63;;;10.80;81.40;;;;;;5035229;28;20174;-90
2022/03/27 02:27:35;;;;;;;15.38;9.52;;;11.00;81.40;;;;;;5035131;28;20823;-91
2022/03/27 02:30:02;;;;;;;12.95;9.50;;;10.90;81.10;;;;;;5035533;28;20221;-90
2022/03/27 02:32:27;;;;;;;14.18;9.40;;;11.00;81.10;;;;;;5037074;28;20205;-90
2022/03/27 02:34:53;;;;;;;16.57;10.40;;;10.80;81.20;;;;;;5045166;28;20187;-89
2022/03/27 02:37:19;;;;;;;14.23;9.43;;;10.90;81.40;;;;;;5035136;28;20234;-89
2022/03/27 02:39:45;;;;;;;14.23;9.47;;;10.90;81.40;;;;;;5035172;28;20626;-89
2022/03/27 02:42:11;;;;;;;21.23;10.53;;;10.80;81.40;;;;;;5035334;28;20177;-89
2022/03/27 02:44:37;;;;;;;17.60;11.30;;;10.80;81.50;;;;;;5036185;28;20529;-89
2022/03/27 02:47:04;;;;;;;17.33;9.73;;;10.80;81.70;;;;;;5036983;28;20181;-89
2022/03/27 02:49:30;;;;;;;24.40;11.45;;;10.80;81.50;;;;;;5035486;28;20426;-90
2022/03/27 02:51:56;;;;;;;20.70;12.07;;;10.70;81.70;;;;;;5052652;28;20177;-90
2022/03/27 02:54:22;;;;;;;19.37;10.97;;;10.70;82.10;;;;;;5035610;28;20471;-89
2022/03/27 02:56:47;;;;;;;19.27;10.90;;;10.80;82.00;;;;;;5034694;28;20173;-89
2022/03/27 02:59:13;;;;;;;16.70;11.07;;;10.70;81.90;;;;;;5035492;28;20919;-90
2022/03/27 03:01:39;;;;;;;18.90;12.80;;;10.60;82.00;;;;;;5036748;28;20512;-90
2022/03/27 03:04:05;;;;;;;21.23;12.47;;;10.50;82.40;;;;;;5034980;28;20890;-90
2022/03/27 03:06:32;;;;;;;16.13;10.75;;;10.60;82.70;;;;;;5053654;28;20629;-89
2022/03/27 03:08:58;;;;;;;22.23;11.85;;;10.60;82.70;;;;;;5038627;28;20204;-89
2022/03/27 03:11:24;;;;;;;19.33;11.10;;;10.50;82.70;;;;;;5039790;28;20173;-90
2022/03/27 03:13:51;;;;;;;19.77;13.00;;;10.50;83.00;;;;;;5040500;28;20471;-89
2022/03/27 03:16:18;;;;;;;23.65;13.75;;;10.50;83.00;;;;;;5057379;28;20465;-91
2022/03/27 03:18:44;;;;;;;23.48;12.43;;;10.50;83.20;;;;;;5058190;28;20181;-90
2022/03/27 03:21:10;;;;;;;20.55;11.10;;;10.40;83.30;;;;;;5057707;28;20180;-89
2022/03/27 03:23:36;;;;;;;21.83;13.85;;;10.40;83.40;;;;;;5022829;28;20296;-90
2022/03/27 03:26:01;;;;;;;29.60;14.67;;;10.30;83.70;;;;;;5024424;28;20652;-89
2022/03/27 03:28:27;;;;;;;23.10;14.33;;;10.40;83.80;;;;;;5047211;28;20471;-91
2022/03/27 03:30:54;;;;;;;22.27;13.10;;;10.20;83.90;;;;;;5053212;28;20439;-89
2022/03/27 03:33:20;;;;;;;24.08;15.27;;;10.20;84.20;;;;;;5040215;28;20493;-89
2022/03/27 03:35:46;;;;;;;21.57;13.53;;;10.40;84.10;;;;;;5039028;28;20268;-90
2022/03/27 03:38:12;;;;;;;21.77;14.18;;;10.40;84.10;;;;;;5057063;28;20410;-89
2022/03/27 03:40:41;;;;;;;29.03;14.57;;;10.40;84.20;;;;;;5025566;28;20174;-89
2022/03/27 03:43:07;;;;;;;30.20;15.80;;;10.40;84.30;;;;;;5036632;28;20223;-91
2022/03/27 03:45:33;;;;;;;20.95;13.07;;;10.30;84.40;;;;;;5018817;28;20182;-90
2022/03/27 03:47:59;;;;;;;24.17;14.07;;;10.50;84.30;;;;;;5037068;28;20178;-90
2022/03/27 03:50:26;;;;;;;29.23;15.95;;;10.50;84.00;;;;;;5018888;28;20182;-90
2022/03/27 03:52:52;;;;;;;27.85;15.13;;;10.50;84.00;;;;;;5017926;28;20717;-91
2022/03/27 03:55:18;;;;;;;27.50;16.70;;;10.50;84.20;;;;;;5018326;28;20200;-90
2022/03/27 03:57:44;;;;;;;22.60;13.93;;;10.50;84.40;;;;;;5024747;28;20423;-90
2022/03/27 04:00:10;;;;;;;22.93;14.73;;;10.50;84.40;;;;;;5039107;28;20828;-90
2022/03/27 04:02:36;;;;;;;26.98;14.02;;;10.50;84.50;;;;;;5050435;28;20542;-90
2022/03/27 04:05:02;;;;;;;26.67;15.20;;;10.50;84.60;;;;;;5052671;28;20177;-91
2022/03/27 04:07:27;;;;;;;30.70;16.23;;;10.40;84.90;;;;;;5040518;28;20465;-90
2022/03/27 04:09:53;;;;;;;26.13;15.47;;;10.50;85.00;;;;;;5039310;28;20418;-90
2022/03/27 04:12:19;;;;;;;25.90;15.00;;;10.50;85.00;;;;;;5040293;28;20187;-90
2022/03/27 04:14:45;;;;;;;23.43;15.23;;;10.50;85.10;;;;;;5050764;28;20625;-89
2022/03/27 04:17:11;;;;;;;25.70;15.73;;;;;;;;;;5038773;28;20412;-90
2022/03/27 04:19:37;;;;;;;27.42;14.95;;;10.60;84.20;;;;;;5036875;28;20184;-90
2022/03/27 04:22:04;;;;;;;28.37;14.63;;;10.60;85.00;;;;;;5055627;28;20566;-90
2022/03/27 04:24:29;;;;;;;30.15;16.15;;;10.60;85.00;;;;;;5037423;28;20443;-90
2022/03/27 04:26:55;;;;;;;29.20;15.33;;;10.50;85.30;;;;;;5021319;28;20607;-90
2022/03/27 04:29:21;;;;;;;24.90;15.40;;;10.50;85.20;;;;;;5038398;28;20427;-90
2022/03/27 04:31:48;;;;;;;28.27;15.83;;;10.50;85.40;;;;;;5055314;28;20736;-90
2022/03/27 04:34:14;;;;;;;29.15;16.65;;;10.40;85.70;;;;;;5037177;28;20455;-90
2022/03/27 04:36:40;;;;;;;29.90;16.03;;;10.40;86.00;;;;;;5038124;28;20200;-90
2022/03/27 04:39:07;;;;;;;31.98;15.23;;;10.30;86.20;;;;;;5037321;28;20182;-89
2022/03/27 04:41:33;;;;;;;31.42;18.17;;;10.40;87.00;;;;;;5038221;28;20177;-89
2022/03/27 04:43:59;;;;;;;34.85;17.98;;;10.50;86.40;;;;;;5055277;28;20197;-89
2022/03/27 04:46:52;;;;;;;29.92;17.23;;;10.60;86.20;;;;;;5036995;28;20252;-89
2022/03/27 04:49:17;;;;;;;28.85;17.20;;;10.50;86.00;;;;;;5038007;28;20177;-89
2022/03/27 04:51:43;;;;;;;29.60;16.20;;;10.50;86.10;;;;;;5034244;28;20192;-89
2022/03/27 04:54:09;;;;;;;28.80;15.10;;;10.50;86.40;;;;;;5020720;28;20540;-90
2022/03/27 04:56:35;;;;;;;30.80;16.87;;;10.60;86.30;;;;;;5018735;28;20181;-89
2022/03/27 04:59:00;;;;;;;31.67;16.17;;;10.60;86.30;;;;;;5035422;28;20181;-89
2022/03/27 05:01:26;;;;;;;31.57;15.97;;;10.70;86.20;;;;;;5035056;28;20189;-90
2022/03/27 05:03:52;;;;;;;29.13;16.13;;;10.80;86.00;;;;;;5016459;28;20198;-90
2022/03/27 05:06:18;;;;;;;32.03;18.43;;;10.80;85.60;;;;;;5034415;28;20661;-89
2022/03/27 05:08:44;;;;;;;29.30;16.93;;;10.90;85.50;;;;;;5017176;28;20451;-89
2022/03/27 05:11:11;;;;;;;31.73;17.17;;;10.80;85.20;;;;;;5034945;28;20455;-89
2022/03/27 05:13:36;;;;;;;29.10;17.60;;;10.80;85.30;;;;;;5017856;28;20271;-90
2022/03/27 05:16:02;;;;;;;35.70;17.40;;;10.80;85.50;;;;;;5030662;28;20246;-90
2022/03/27 05:18:28;;;;;;;28.67;16.13;;;10.80;85.60;;;;;;5020820;28;20184;-89
2022/03/27 05:20:54;;;;;;;31.23;17.20;;;10.90;85.50;;;;;;5017470;28;20264;-89
2022/03/27 05:23:19;;;;;;;28.90;17.00;;;10.80;85.50;;;;;;5016778;28;20194;-90
2022/03/27 05:25:48;;;;;;;26.40;15.00;;;10.80;85.60;;;;;;5018076;28;20266;-90
2022/03/27 05:28:14;;;;;;;29.98;15.60;;;10.70;86.00;;;;;;5020836;28;20185;-90
2022/03/27 05:30:40;;;;;;;26.43;16.30;;;10.70;86.00;;;;;;5045955;28;20245;-90
2022/03/27 05:33:06;;;;;;;30.40;18.03;;;10.70;86.00;;;;;;5023540;28;20495;-90
2022/03/27 05:35:33;;;;;;;28.45;15.07;;;10.70;86.10;;;;;;5004013;28;20785;-90
2022/03/27 05:37:59;;;;;;;31.77;16.23;;;10.60;86.10;;;;;;5020099;28;20561;-90
2022/03/27 05:40:25;;;;;;;31.60;15.95;;;10.70;86.30;;;;;;5021495;28;20202;-89
2022/03/27 05:42:52;;;;;;;31.55;16.25;;;10.80;86.10;;;;;;5018492;28;20720;-90
2022/03/27 05:45:18;;;;;;;27.85;16.33;;;10.80;86.00;;;;;;5016832;28;20174;-91
2022/03/27 05:47:45;;;;;;;30.55;16.17;;;11.00;85.80;;;;;;5034585;28;20182;-89
2022/03/27 05:50:13;;;;;;;25.15;15.50;;;10.90;85.50;;;;;;5034480;28;20174;-89
2022/03/27 05:52:41;;;;;;;28.98;14.93;;;10.80;85.70;;;;;;5021715;28;20212;-89
2022/03/27 05:55:07;;;;;;;27.00;16.05;;;10.60;85.90;;;;;;5025334;28;20190;-90
2022/03/27 05:57:33;;;;;;;28.90;16.20;;;10.30;86.70;;;;;;5017798;28;20284;-89
2022/03/27 05:59:59;;;;;;;29.73;16.27;;;10.40;87.30;;;;;;5017300;28;20174;-90
2022/03/27 06:02:25;;;;;;;24.08;14.50;;;10.50;87.50;;;;;;5034112;28;20182;-89
2022/03/27 06:04:51;;;;;;;26.00;14.97;;;10.50;87.40;;;;;;5016328;28;20174;-90
2022/03/27 06:07:16;;;;;;;29.07;15.30;;;10.50;87.40;;;;;;5019536;28;20213;-90
2022/03/27 06:09:42;;;;;;;27.90;15.03;;;10.60;87.10;;;;;;5025045;28;20421;-90
2022/03/27 06:12:10;;;;;;;27.70;15.10;;;10.70;86.70;;;;;;5024577;28;20486;-89
2022/03/27 06:14:36;;;;;;;24.75;14.85;;;10.70;86.30;;;;;;5015653;28;20493;-90
2022/03/27 06:17:02;;;;;;;28.80;16.33;;;10.90;86.30;;;;;;5015733;28;20183;-89
2022/03/27 06:19:30;;;;;;;26.25;14.40;;;11.00;85.90;;;;;;5016103;28;20198;-90
2022/03/27 06:21:59;;;;;;;30.02;16.60;;;11.00;85.40;;;;;;5017396;28;20182;-90
2022/03/27 06:24:25;;;;;;;31.70;17.70;;;11.00;85.40;;;;;;5017189;28;20327;-90
2022/03/27 06:26:54;;;;;;;25.75;15.25;;;10.90;85.30;;;;;;5017031;28;20202;-91
2022/03/27 06:29:21;;;;;;;26.67;14.52;;;10.90;85.40;;;;;;5016460;28;20180;-90
2022/03/27 06:31:50;;;;;;;24.77;15.15;;;10.80;85.50;;;;;;5017506;28;20182;-89
2022/03/27 06:34:16;;;;;;;28.83;16.40;;;10.90;85.70;;;;;;5016407;28;20198;-90
2022/03/27 06:36:42;;;;;;;23.50;13.30;;;11.00;85.50;;;;;;5016529;28;20202;-90
2022/03/27 06:39:08;;;;;;;28.10;16.00;;;11.00;85.30;;;;;;5017637;28;20665;-90
2022/03/27 06:41:34;;;;;;;24.43;15.63;;;10.90;85.40;;;;;;5035933;28;20176;-91
2022/03/27 06:44:00;;;;;;;27.92;13.73;;;11.00;85.10;;;;;;5036166;28;20447;-90
2022/03/27 06:46:27;;;;;;;25.07;14.57;;;11.10;84.90;;;;;;5035606;28;20189;-90
2022/03/27 06:48:53;;;;;;;23.73;13.10;;;11.00;84.60;;;;;;5035780;28;20478;-90
2022/03/27 06:51:19;;;;;;;26.15;14.07;;;11.00;84.20;;;;;;5018935;28;20288;-89
2022/03/27 06:53:46;;;;;;;22.80;15.10;;;10.90;84.80;;;;;;5052968;28;20238;-89
2022/03/27 06:56:12;;;;;;;20.48;13.73;;;10.80;84.40;;;;;;5035780;28;20582;-89
2022/03/27 06:58:38;;;;;;;25.80;14.70;;;10.70;84.90;;;;;;5036295;28;20175;-89
2022/03/27 07:03:53;;;;;;;23.88;14.10;;;10.80;84.80;;;;;;5026213;28;20870;-90
2022/03/27 07:06:23;;;;;;;26.10;14.30;;;10.80;84.60;;;;;;5055163;28;20216;-90
2022/03/27 07:08:49;;;;;;;19.70;12.10;;;10.80;84.70;;;;;;5038290;28;20177;-90
2022/03/27 07:11:15;;;;;;;23.30;13.10;;;11.20;84.90;;;;;;5056155;28;20181;-89
2022/03/27 07:13:41;;;;;;;25.30;15.50;;;10.70;84.60;;;;;;5046604;28;20205;-90
2022/03/27 07:16:07;;;;;;;21.38;12.85;;;10.80;84.80;;;;;;5028930;28;20412;-91
2022/03/27 07:18:33;;;;;;;25.42;15.60;;;10.80;85.50;;;;;;5023860;28;20688;-90
2022/03/27 07:20:59;;;;;;;25.40;14.80;;;10.70;84.80;;;;;;5035526;28;20180;-90
2022/03/27 07:23:25;;;;;;;26.67;14.85;;;10.80;84.80;;;;;;5021781;28;20209;-89
2022/03/27 07:25:53;;;;;;;30.85;16.55;;;10.90;84.60;;;;;;5018099;28;20276;-90
2022/03/27 07:28:20;;;;;;;21.35;14.07;;;11.00;84.50;;;;;;5018176;28;20182;-90
2022/03/27 07:30:47;;;;;;;22.75;13.18;;;10.90;84.10;;;;;;5032564;28;20181;-89
2022/03/27 07:33:16;;;;;;;22.02;12.32;;;10.80;84.00;;;;;;5030359;28;20210;-90
2022/03/27 07:35:42;;;;;;;22.33;12.68;;;11.00;84.10;;;;;;5024853;28;20218;-90
2022/03/27 08:55:55;;;;;;;22.05;14.27;;;10.60;85.00;;;;;;5060402;28;20235;-91
2022/03/27 08:58:27;;;;;;;24.30;14.38;;;10.40;85.20;;;;;;5061473;28;20211;-92
2022/03/27 09:00:53;;;;;;;28.83;14.20;;;10.50;85.60;;;;;;5060196;28;20669;-92
2022/03/27 09:03:21;;;;;;;21.80;12.35;;;10.40;85.20;;;;;;5061298;28;20260;-92
2022/03/27 09:05:47;;;;;;;24.63;13.68;;;10.50;85.60;;;;;;5062667;28;20189;-92
2022/03/27 09:08:13;;;;;;;22.33;13.47;;;10.40;85.70;;;;;;5067562;28;20181;-92
2022/03/27 09:10:40;;;;;;;20.75;12.80;;;10.70;85.70;;;;;;5069191;28;20407;-92
2022/03/27 09:13:11;;;;;;;26.55;14.07;;;10.70;85.00;;;;;;5055383;28;20319;-93
2022/03/27 09:15:37;;;;;;;23.08;15.25;;;10.80;84.80;;;;;;5070119;28;20177;-92
2022/03/27 09:18:10;;;;;;;24.57;15.30;;;11.00;84.50;;;;;;5068359;28;20207;-93
2022/03/27 09:20:41;;;;;;;22.80;14.25;;;11.00;84.10;;;;;;5067797;28;20256;-93
2022/03/27 09:23:28;;;;;;;26.52;14.95;;;10.90;83.70;;;;;;5048518;28;20182;-93
2022/03/27 09:26:01;;;;;;;24.10;13.77;;;10.90;84.00;;;;;;5060445;28;20169;-93
2022/03/27 09:28:41;;;;;;;28.77;13.95;;;11.10;84.30;;;;;;5065377;28;20193;-93
2022/03/27 09:31:18;;;;;;;25.48;14.18;;;10.90;83.60;;;;;;5066872;28;20176;-93
2022/03/27 09:33:47;;;;;;;25.33;13.07;;;11.10;84.10;;;;;;5067670;28;20193;-93
2022/03/27 09:36:22;;;;;;;24.73;15.32;;;11.20;83.80;;;;;;5066631;28;20180;-93
2022/03/27 09:39:00;;;;;;;26.00;15.30;;;11.50;83.10;;;;;;5066722;28;20264;-92
2022/03/27 09:41:46;;;;;;;22.67;12.82;;;11.50;82.30;;;;;;5067257;28;20181;-92
2022/03/27 09:44:16;;;;;;;24.52;14.00;;;11.80;81.20;;;;;;5069567;28;20173;-92
2022/03/27 09:47:08;;;;;;;23.52;14.35;;;12.00;80.40;;;;;;5064967;28;20169;-92
2022/03/27 09:49:34;;;;;;;26.02;14.75;;;11.90;80.10;;;;;;5068173;28;20197;-92
2022/03/27 09:52:15;;;;;;;23.05;14.77;;;11.90;79.90;;;;;;5068629;28;20177;-92
2022/03/27 09:55:00;;;;;;;19.10;12.70;;;12.00;79.50;;;;;;5071680;28;20218;-92
2022/03/27 09:57:37;;;;;;;33.03;19.02;;;12.00;79.30;;;;;;5073744;28;20181;-91
2022/03/27 10:00:15;;;;;;;19.85;13.55;;;12.00;79.10;;;;;;5062403;28;20224;-92
2022/03/27 10:02:42;;;;;;;22.20;13.35;;;12.00;79.20;;;;;;5062262;28;20656;-92
2022/03/27 10:05:21;;;;;;;17.90;11.95;;;11.90;78.80;;;;;;5062936;28;20176;-92
2022/03/27 10:07:50;;;;;;;21.13;12.50;;;11.90;79.10;;;;;;5061320;28;20171;-92
2022/03/27 10:10:18;;;;;;;25.33;13.73;;;11.50;79.80;;;;;;5064568;28;20629;-91
2022/03/27 10:12:47;;;;;;;25.08;14.63;;;11.50;80.40;;;;;;5065229;28;20169;-91
2022/03/27 10:15:15;;;;;;;25.33;14.50;;;11.50;80.40;;;;;;5067613;28;20838;-92
2022/03/27 10:17:50;;;;;;;21.67;13.10;;;11.60;80.50;;;;;;5065937;28;20640;-92
2022/03/27 10:20:21;;;;;;;24.02;13.02;;;11.80;80.20;;;;;;5048529;28;20220;-91
2022/03/27 10:22:56;;;;;;;27.35;14.93;;;12.00;79.50;;;;;;5067506;28;20166;-92
2022/03/27 10:25:35;;;;;;;22.92;14.05;;;12.10;79.20;;;;;;5068803;28;20177;-89
2022/03/27 10:28:09;;;;;;;24.58;14.00;;;12.30;78.70;;;;;;5041577;28;20196;-90
2022/03/27 10:31:02;;;;;;;32.53;16.05;;;12.50;79.00;;;;;;5053343;28;20177;-90
2022/03/27 10:33:30;;;;;;;23.95;14.88;;;12.20;78.00;;;;;;5045677;28;20664;-92
2022/03/27 10:39:37;;;;;;;24.88;14.88;;;12.20;78.90;;;;;;5060668;28;20228;-91
2022/03/27 10:42:15;;;;;;;23.98;13.65;;;12.20;78.80;;;;;;5046545;28;20246;-94
2022/03/27 10:44:47;;;;;;;28.33;14.88;;;12.10;78.80;;;;;;5055356;28;20154;-92
2022/03/27 10:47:21;;;;;;;20.63;13.88;;;12.20;78.10;;;;;;5036589;28;20249;-92
2022/03/27 10:50:22;;;;;;;22.77;13.68;;;12.40;78.20;;;;;;5011824;28;20244;-91
2022/03/27 10:52:50;;;;;;;25.45;15.10;;;12.60;77.20;;;;;;5000769;28;20227;-92
2022/03/27 10:55:17;;;;;;;27.85;14.43;;;12.70;76.90;;;;;;5035297;28;20221;-93
2022/03/27 10:57:51;;;;;;;25.13;13.07;;;12.80;76.60;;;;;;5019333;28;20387;-92
2022/03/27 11:00:37;;;;;;;20.85;12.60;;;13.00;76.10;;;;;;5020761;28;20194;-90
2022/03/27 11:03:03;;;;;;;20.05;12.70;;;13.20;75.40;;;;;;5049089;28;20276;-92
2022/03/27 11:05:31;;;;;;;24.00;14.00;;;12.70;75.70;;;;;;5036198;28;20293;-92
2022/03/27 11:08:18;;;;;;;30.98;15.65;;;12.50;76.30;;;;;;5036952;28;20452;-93
2022/03/27 11:56:19;;;;;;;41.35;20.38;;;14.00;72.00;;;;;;5066588;28;20757;-90
2022/03/27 11:59:09;;;;;;;44.88;21.08;;;14.00;71.60;;;;;;5057423;28;20204;-90
2022/03/27 12:01:40;;;;;;;39.55;22.77;;;14.20;71.60;;;;;;5064519;28;20204;-89
2022/03/27 12:04:07;;;;;;;38.47;20.98;;;14.20;70.90;;;;;;5060910;28;20549;-90
2022/03/27 12:06:33;;;;;;;41.95;24.15;;;14.50;70.70;;;;;;5060664;28;20220;-90
2022/03/27 12:08:58;;;;;;;47.38;24.98;;;14.70;69.90;;;;;;5063829;28;20197;-89
2022/03/27 12:11:26;;;;;;;46.87;24.70;;;14.60;69.70;;;;;;5069831;28;20305;-90
2022/03/27 12:13:53;;;;;;;41.63;24.15;;;14.20;70.30;;;;;;5071405;28;20212;-90
2022/03/27 12:16:25;;;;;;;43.33;24.73;;;14.50;70.60;;;;;;5072685;28;20193;-90
2022/03/27 12:18:53;;;;;;;54.88;29.52;;;14.60;70.10;;;;;;5059281;28;20204;-90
2022/03/27 12:21:23;;;;;;;64.18;31.75;;;14.80;69.60;;;;;;5057193;28;20225;-90
2022/03/27 12:23:52;;;;;;;54.60;27.90;;;14.60;69.40;;;;;;5061656;28;20261;-90
2022/03/27 12:32:01;;;;;;;56.35;26.70;;;14.80;69.20;;;;;;5063542;28;20176;-90
2022/03/27 12:34:28;;;;;;;64.25;27.40;;;14.80;68.80;;;;;;5059605;28;20205;-91
2022/03/27 12:37:11;;;;;;;54.83;28.63;;;14.70;68.80;;;;;;5063779;28;20245;-91
2022/03/27 12:39:57;;;;;;;65.40;29.10;;;14.80;68.50;;;;;;5065795;28;20615;-91
2022/03/27 12:42:40;;;;;;;60.05;29.70;;;14.70;68.50;;;;;;5068522;28;20236;-90
2022/03/27 12:45:29;;;;;;;54.95;28.58;;;15.00;68.60;;;;;;5067873;28;20177;-92
2022/03/27 12:48:23;;;;;;;60.80;28.50;;;15.20;68.00;;;;;;5067590;28;20661;-91
2022/03/27 12:50:53;;;;;;;53.90;23.90;;;15.30;67.90;;;;;;5060521;28;20533;-91
2022/03/27 12:53:42;;;;;;;53.65;27.55;;;15.00;67.50;;;;;;5061426;28;20211;-89
2022/03/27 12:56:51;;;;;;;58.55;29.02;;;15.00;68.10;;;;;;5062120;28;20224;-89
2022/03/27 12:59:39;;;;;;;53.97;25.95;;;15.10;68.20;;;;;;5065601;28;20220;-89
2022/03/27 13:02:25;;;;;;;54.65;27.13;;;14.70;68.50;;;;;;5067175;28;20212;-91
2022/03/27 13:05:11;;;;;;;55.78;26.30;;;15.00;68.50;;;;;;5055935;28;20181;-89
2022/03/27 13:08:08;;;;;;;49.58;25.48;;;14.80;68.20;;;;;;5075138;28;20204;-89
2022/03/27 13:10:37;;;;;;;62.10;28.10;;;14.30;69.20;;;;;;5069117;28;20256;-90
2022/03/27 13:13:13;;;;;;;60.15;26.83;;;14.20;70.00;;;;;;5064738;28;20211;-90
2022/03/27 13:15:50;;;;;;;60.78;27.02;;;14.20;70.80;;;;;;5067143;28;20169;-89
2022/03/27 13:18:42;;;;;;;52.97;26.98;;;14.10;71.20;;;;;;5077843;28;20156;-92
2022/03/27 13:21:15;;;;;;;68.05;29.30;;;13.70;71.80;;;;;;5075993;28;20253;-89
2022/03/27 13:23:41;;;;;;;62.13;28.02;;;13.70;72.70;;;;;;5069604;28;20173;-90
2022/03/27 13:26:07;;;;;;;58.37;28.00;;;13.90;72.90;;;;;;5066596;28;20228;-88
2022/03/27 13:28:37;;;;;;;58.33;31.08;;;13.90;72.40;;;;;;5061015;28;20542;-89
2022/03/27 13:31:12;;;;;;;54.88;28.58;;;13.90;72.50;;;;;;5060170;28;20245;-89
2022/03/27 13:33:39;;;;;;;56.65;26.65;;;14.10;72.30;;;;;;5060474;28;20219;-89
2022/03/27 13:36:05;;;;;;;57.60;24.80;;;14.30;71.70;;;;;;5060181;28;20260;-90
2022/03/27 13:38:31;;;;;;;56.22;25.95;;;14.40;71.20;;;;;;5064593;28;20197;-89
2022/03/27 13:43:42;;;;;;;52.90;24.63;;;14.30;70.20;;;;;;5078289;28;20183;-91
2022/03/27 13:46:18;;;;;;;53.58;25.08;;;14.30;70.30;;;;;;5076749;28;20205;-90
2022/03/27 13:48:44;;;;;;;47.15;22.83;;;14.40;70.40;;;;;;5087493;22;20189;-89
2022/03/27 13:51:10;;;;;;;45.23;22.00;;;14.50;70.10;;;;;;5035843;28;20604;-89
2022/03/27 13:53:36;;;;;;;47.93;21.97;;;14.70;69.80;;;;;;5035142;28;20828;-90
2022/03/27 13:56:01;;;;;;;42.47;20.57;;;14.80;68.80;;;;;;5037175;28;20597;-90
2022/03/27 13:58:28;;;;;;;42.63;21.10;;;14.80;68.60;;;;;;5037691;28;20418;-90
2022/03/27 14:00:53;;;;;;;48.30;22.60;;;14.90;68.10;;;;;;5037792;28;20424;-89
2022/03/27 14:03:21;;;;;;;48.37;22.93;;;15.00;67.80;;;;;;5027504;28;20215;-91
2022/03/27 14:05:46;;;;;;;43.38;21.27;;;15.20;67.40;;;;;;5024639;28;20269;-91
2022/03/27 14:08:12;;;;;;;41.83;20.07;;;15.20;66.70;;;;;;5030024;28;20676;-89
2022/03/27 14:10:38;;;;;;;36.03;19.73;;;15.20;67.00;;;;;;5023957;28;20799;-88
2022/03/27 14:13:04;;;;;;;41.20;19.43;;;15.00;66.60;;;;;;5035354;28;20997;-88
2022/03/27 14:15:30;;;;;;;40.10;18.77;;;15.20;66.50;;;;;;5027910;28;20427;-88
2022/03/27 14:17:58;;;;;;;43.17;21.00;;;15.30;66.20;;;;;;5036557;28;20173;-89
2022/03/27 14:20:24;;;;;;;43.60;20.88;;;15.50;65.80;;;;;;5035611;28;20193;-90
2022/03/27 14:22:49;;;;;;;36.10;18.90;;;15.70;65.80;;;;;;5036317;28;20181;-90
2022/03/27 14:25:16;;;;;;;35.63;18.93;;;15.70;65.20;;;;;;5069109;28;20228;-88
2022/03/27 14:27:43;;;;;;;40.50;17.85;;;15.90;65.10;;;;;;5036753;28;20199;-88
2022/03/27 14:30:11;;;;;;;45.33;20.13;;;15.80;64.40;;;;;;5036661;28;20224;-89
2022/03/27 14:32:40;;;;;;;32.80;19.10;;;15.90;64.20;;;;;;5035513;28;20239;-88
2022/03/27 14:35:06;;;;;;;40.85;19.98;;;15.80;63.60;;;;;;5035279;28;20195;-89
2022/03/27 14:37:33;;;;;;;37.55;19.17;;;16.10;63.10;;;;;;5038079;28;20208;-89
2022/03/27 14:40:00;;;;;;;38.25;19.17;;;16.10;62.00;;;;;;5052807;28;20741;-89
2022/03/27 14:42:26;;;;;;;40.28;19.17;;;16.00;61.50;;;;;;5035440;28;20177;-88
2022/03/27 14:44:53;;;;;;;41.88;18.20;;;16.10;61.40;;;;;;5038071;28;20239;-89
2022/03/27 14:47:19;;;;;;;32.53;16.13;;;16.30;61.10;;;;;;5037677;28;20206;-89
2022/03/27 14:49:47;;;;;;;33.80;18.93;;;16.30;61.10;;;;;;5035363;28;20295;-89
2022/03/27 14:52:13;;;;;;;38.67;18.95;;;15.90;60.90;;;;;;5035869;28;20188;-88
2022/03/27 14:57:23;;;;;;;29.40;16.83;;;16.10;61.00;;;;;;5052056;28;20782;-89
2022/03/27 14:59:49;;;;;;;27.73;14.75;;;16.30;60.40;;;;;;5034900;28;20198;-89
2022/03/27 15:02:17;;;;;;;27.50;13.80;;;16.20;58.80;;;;;;5035452;28;20183;-89